createdAt,value
2022-10-23T00:01:50.236Z,17.69
2022-10-23T00:05:50.400Z,17.76
2022-10-23T00:09:50.465Z,17.59
2022-10-23T00:13:51.361Z,17.46
2022-10-23T00:17:54.423Z,17.56
2022-10-23T00:21:54.629Z,17.44
2022-10-23T00:25:54.845Z,17.45
2022-10-23T00:29:55.198Z,17.37
2022-10-23T00:33:58.147Z,17.52
2022-10-23T00:37:58.434Z,17.70
2022-10-23T00:41:59.068Z,17.70
2022-10-23T00:46:00.969Z,17.76
2022-10-23T00:50:03.993Z,17.99
2022-10-23T00:54:23.378Z,18.04
2022-10-23T00:58:24.843Z,17.93
2022-10-23T01:02:25.280Z,17.77
2022-10-23T01:06:40.100Z,18.02
2022-10-23T01:10:48.319Z,18.16
2022-10-23T01:15:03.177Z,18.22
2022-10-23T01:19:15.573Z,18.16
2022-10-23T01:24:10.152Z,18.30
2022-10-23T01:28:23.577Z,18.23
2022-10-23T01:32:34.820Z,18.15
2022-10-23T01:36:37.334Z,18.28
2022-10-23T01:40:50.195Z,18.11
2022-10-23T01:45:01.451Z,17.86
2022-10-23T01:49:15.612Z,17.88
2022-10-23T01:53:16.570Z,18.01
2022-10-23T01:57:22.343Z,18.04
2022-10-23T02:01:30.976Z,17.96
2022-10-23T02:05:33.417Z,18.30
2022-10-23T02:09:36.645Z,18.26
2022-10-23T02:13:46.905Z,18.28
2022-10-23T02:18:07.421Z,18.15
2022-10-23T02:22:15.210Z,18.54
2022-10-23T02:26:23.480Z,18.12
2022-10-23T02:30:24.853Z,18.18
2022-10-23T02:34:41.649Z,17.95
2022-10-23T02:38:46.751Z,18.08
2022-10-23T02:42:57.328Z,17.90
2022-10-23T02:47:13.913Z,18.08
2022-10-23T02:51:23.894Z,17.98
2022-10-23T02:55:45.243Z,18.15
2022-10-23T02:59:50.596Z,18.43
2022-10-23T03:03:57.415Z,18.30
2022-10-23T03:08:00.437Z,18.39
2022-10-23T03:12:00.547Z,18.14
2022-10-23T03:16:00.784Z,18.13
2022-10-23T03:20:01.416Z,18.27
2022-10-23T03:24:04.288Z,18.37
2022-10-23T03:28:10.688Z,18.19
2022-10-23T03:32:10.983Z,18.53
2022-10-23T03:36:12.823Z,18.66
2022-10-23T03:40:16.710Z,18.70
2022-10-23T03:44:17.929Z,18.57
2022-10-23T03:48:18.695Z,18.56
2022-10-23T03:52:18.848Z,18.76
2022-10-23T03:56:21.719Z,18.64
2022-10-23T04:00:22.171Z,18.95
2022-10-23T04:04:22.527Z,18.80
2022-10-23T04:08:22.867Z,18.67
2022-10-23T04:12:29.204Z,18.78
2022-10-23T04:16:29.659Z,18.68
2022-10-23T04:20:29.773Z,18.98
2022-10-23T04:24:33.634Z,18.98
2022-10-23T04:28:37.814Z,18.95
2022-10-23T04:32:38.020Z,19.06
2022-10-23T04:36:38.432Z,18.90
2022-10-23T04:40:42.607Z,18.68
2022-10-23T04:44:45.500Z,18.84
2022-10-23T04:48:46.405Z,18.92
2022-10-23T04:53:01.755Z,18.92
2022-10-23T04:57:08.148Z,18.84
2022-10-23T05:01:29.371Z,18.92
2022-10-23T05:05:30.538Z,19.04
2022-10-23T05:09:38.297Z,19.02
2022-10-23T05:13:58.960Z,18.85
2022-10-23T05:18:13.466Z,18.96
2022-10-23T05:22:16.370Z,18.81
2022-10-23T05:26:23.179Z,18.87
2022-10-23T05:30:26.123Z,18.54
2022-10-23T05:34:32.899Z,19.09
2022-10-23T05:38:37.665Z,19.05
2022-10-23T05:42:45.557Z,19.10
2022-10-23T05:46:49.497Z,18.88
2022-10-23T05:51:23.076Z,18.90
2022-10-23T05:55:34.180Z,19.21
2022-10-23T06:00:00.346Z,18.88
2022-10-23T06:04:02.329Z,18.84
2022-10-23T06:08:25.286Z,18.84
2022-10-23T06:12:27.073Z,18.81
2022-10-23T06:16:28.247Z,18.62
2022-10-23T06:20:28.861Z,19.19
2022-10-23T06:24:40.598Z,19.33
2022-10-23T06:28:45.654Z,19.69
2022-10-23T06:32:46.330Z,19.40
2022-10-23T06:36:48.366Z,19.42
2022-10-23T06:41:14.507Z,19.31
2022-10-23T06:45:16.942Z,19.41
2022-10-23T06:49:35.912Z,19.55
2022-10-23T06:53:38.446Z,19.79
2022-10-23T06:57:48.834Z,19.84
2022-10-23T07:01:49.473Z,20.01
2022-10-23T07:05:50.267Z,20.17
2022-10-23T07:09:50.455Z,20.01
2022-10-23T07:14:00.199Z,20.18
2022-10-23T07:18:00.306Z,20.45
2022-10-23T07:22:13.441Z,20.65
2022-10-23T07:26:27.779Z,20.64
2022-10-23T07:30:30.578Z,20.45
2022-10-23T07:34:33.153Z,20.58
2022-10-23T07:38:56.220Z,20.21
2022-10-23T07:42:56.380Z,20.50
2022-10-23T07:46:59.423Z,20.68
2022-10-23T07:51:03.649Z,20.69
2022-10-23T07:55:04.882Z,20.58
2022-10-23T07:59:07.971Z,20.59
2022-10-23T08:03:12.786Z,20.81
2022-10-23T08:07:13.457Z,20.62
2022-10-23T08:11:24.777Z,20.85
2022-10-23T08:15:25.196Z,20.89
2022-10-23T08:19:33.734Z,21.44
2022-10-23T08:23:35.365Z,21.56
2022-10-23T08:27:35.525Z,21.53
2022-10-23T08:31:37.068Z,21.91
2022-10-23T08:35:55.864Z,21.57
2022-10-23T08:40:02.615Z,21.41
2022-10-23T08:44:45.124Z,21.62
2022-10-23T08:48:54.217Z,21.63
2022-10-23T08:53:32.547Z,21.01
2022-10-23T08:57:43.758Z,21.27
2022-10-23T09:01:49.788Z,21.60
2022-10-23T09:06:10.191Z,21.80
2022-10-23T09:10:42.692Z,22.13
2022-10-23T09:15:07.209Z,22.42
2022-10-23T09:19:17.590Z,22.94
2022-10-23T09:23:22.063Z,23.71
2022-10-23T09:27:25.954Z,23.70
2022-10-23T09:31:26.499Z,23.86
2022-10-23T09:35:29.087Z,24.06
2022-10-23T09:39:34.524Z,23.11
2022-10-23T09:43:37.752Z,23.91
2022-10-23T09:47:39.960Z,23.70
2022-10-23T09:51:59.178Z,23.08
2022-10-23T09:56:04.510Z,23.42
2022-10-23T10:00:21.633Z,23.43
2022-10-23T10:04:22.780Z,23.99
2022-10-23T10:08:38.257Z,23.85
2022-10-23T10:12:58.400Z,24.52
2022-10-23T10:17:09.055Z,25.01
2022-10-23T10:21:21.658Z,25.35
2022-10-23T10:25:30.801Z,25.43
2022-10-23T10:29:53.500Z,25.88
2022-10-23T10:34:13.130Z,25.45
2022-10-23T10:38:38.504Z,25.24
2022-10-23T10:43:07.806Z,25.39
2022-10-23T10:47:25.662Z,26.39
2022-10-23T10:51:38.199Z,26.02
2022-10-23T10:55:44.393Z,25.70
2022-10-23T10:59:53.994Z,26.07
2022-10-23T11:03:59.860Z,26.96
2022-10-23T11:08:09.964Z,26.82
2022-10-23T11:12:16.770Z,26.73
2022-10-23T11:16:24.326Z,27.15
2022-10-23T11:20:54.137Z,27.42
2022-10-23T11:25:43.969Z,27.90
2022-10-23T11:30:15.555Z,28.12
2022-10-23T11:34:52.540Z,27.81
2022-10-23T11:38:59.170Z,27.40
2022-10-23T11:43:01.956Z,28.50
2022-10-23T11:47:08.452Z,28.97
2022-10-23T11:51:28.403Z,29.17
2022-10-23T11:55:31.015Z,28.43
2022-10-23T11:59:37.954Z,28.39
2022-10-23T12:03:55.877Z,28.78
2022-10-23T12:08:02.789Z,28.11
2022-10-23T12:12:29.867Z,27.54
2022-10-23T12:16:41.172Z,27.60
2022-10-23T12:20:50.828Z,27.91
2022-10-23T12:25:06.029Z,28.02
2022-10-23T12:29:21.868Z,27.90
2022-10-23T12:33:37.819Z,26.84
2022-10-23T12:38:04.383Z,25.92
2022-10-23T12:42:05.381Z,26.88
2022-10-23T12:46:20.780Z,27.23
2022-10-23T12:50:28.753Z,27.34
2022-10-23T12:54:29.748Z,27.99
2022-10-23T12:58:33.788Z,27.94
2022-10-23T13:02:37.286Z,26.68
2022-10-23T13:06:42.349Z,26.43
2022-10-23T13:10:43.250Z,26.46
2022-10-23T13:14:57.380Z,26.72
2022-10-23T13:18:57.616Z,26.86
2022-10-23T13:23:13.738Z,26.16
2022-10-23T13:27:29.648Z,26.27
2022-10-23T13:31:35.765Z,26.37
2022-10-23T13:35:37.380Z,26.02
2022-10-23T13:39:40.186Z,26.02
2022-10-23T13:43:40.683Z,26.37
2022-10-23T13:47:41.380Z,25.66
2022-10-23T13:51:47.566Z,24.94
2022-10-23T13:55:57.827Z,24.77
2022-10-23T13:59:58.935Z,24.64
2022-10-23T14:04:03.933Z,25.21
2022-10-23T14:08:04.121Z,25.13
2022-10-23T14:12:07.447Z,25.08
2022-10-23T14:16:08.448Z,24.65
2022-10-23T14:20:10.662Z,24.51
2022-10-23T14:24:11.939Z,24.45
2022-10-23T14:28:14.642Z,24.80
2022-10-23T14:32:15.024Z,24.63
2022-10-23T14:36:15.755Z,24.65
2022-10-23T14:40:16.153Z,24.49
2022-10-23T14:44:18.945Z,24.53
2022-10-23T14:48:19.463Z,24.33
2022-10-23T14:52:19.688Z,24.67
2022-10-23T14:56:19.761Z,24.68
2022-10-23T15:00:22.900Z,24.60
2022-10-23T15:04:24.213Z,24.26
2022-10-23T15:08:25.568Z,24.41
2022-10-23T15:12:26.940Z,24.42
2022-10-23T15:16:30.449Z,24.39
2022-10-23T15:20:30.602Z,24.60
2022-10-23T15:24:30.715Z,24.85
2022-10-23T15:28:32.528Z,24.54
2022-10-23T15:32:35.273Z,24.36
2022-10-23T15:36:35.568Z,24.03
2022-10-23T15:40:35.639Z,23.80
2022-10-23T15:44:37.277Z,23.66
2022-10-23T15:48:40.004Z,23.28
2022-10-23T15:52:40.180Z,23.39
2022-10-23T15:56:40.345Z,23.29
2022-10-23T16:00:40.515Z,22.89
2022-10-23T16:04:43.169Z,22.86
2022-10-23T16:08:43.881Z,22.75
2022-10-23T16:12:44.291Z,22.59
2022-10-23T16:16:44.953Z,22.84
2022-10-23T16:20:47.707Z,22.80
2022-10-23T16:24:47.820Z,22.84
2022-10-23T16:28:49.995Z,22.77
2022-10-23T16:32:50.828Z,22.76
2022-10-23T16:36:54.114Z,22.67
2022-10-23T16:41:04.923Z,22.94
2022-10-23T16:45:25.320Z,22.85
2022-10-23T16:49:25.671Z,22.93
2022-10-23T16:53:30.884Z,22.82
2022-10-23T16:57:31.065Z,22.79
2022-10-23T17:01:34.125Z,22.80
2022-10-23T17:05:37.510Z,22.59
2022-10-23T17:09:40.461Z,22.47
2022-10-23T17:13:45.469Z,22.55
2022-10-23T17:17:45.891Z,22.61
2022-10-23T17:21:47.034Z,22.64
2022-10-23T17:25:49.720Z,22.67
2022-10-23T17:29:49.934Z,22.60
2022-10-23T17:33:52.092Z,22.80
2022-10-23T17:37:52.220Z,22.63
2022-10-23T17:41:56.006Z,22.63
2022-10-23T17:45:56.333Z,22.33
2022-10-23T17:49:56.502Z,22.26
2022-10-23T17:54:02.773Z,22.34
2022-10-23T17:58:05.560Z,22.31
2022-10-23T18:02:05.846Z,22.21
2022-10-23T18:06:10.782Z,22.16
2022-10-23T18:10:14.462Z,22.33
2022-10-23T18:14:17.896Z,22.43
2022-10-23T18:18:17.994Z,22.33
2022-10-23T18:26:22.782Z,22.59
2022-10-23T18:30:25.990Z,22.14
2022-10-23T18:34:28.992Z,22.40
2022-10-23T18:38:32.669Z,22.13
2022-10-23T18:42:34.814Z,22.11
2022-10-23T18:46:38.690Z,22.30
2022-10-23T18:50:40.268Z,22.24
2022-10-23T18:54:40.946Z,22.35
2022-10-23T18:58:41.396Z,22.18
2022-10-23T19:02:45.362Z,22.19
2022-10-23T19:06:48.749Z,22.17
2022-10-23T19:10:50.829Z,22.22
2022-10-23T19:14:52.004Z,22.10
2022-10-23T19:19:01.599Z,22.26
2022-10-23T19:23:05.377Z,22.23
2022-10-23T19:27:06.228Z,22.47
2022-10-23T19:31:07.628Z,22.47
2022-10-23T19:35:12.652Z,22.32
2022-10-23T19:39:12.731Z,22.22
2022-10-23T19:43:12.957Z,22.22
2022-10-23T19:47:13.121Z,22.52
2022-10-23T19:51:16.380Z,22.39
2022-10-23T19:55:16.737Z,22.39
2022-10-23T19:59:17.224Z,22.58
2022-10-23T20:03:18.994Z,22.14
2022-10-23T20:07:25.447Z,22.46
2022-10-23T20:11:28.859Z,22.72
2022-10-23T20:15:29.056Z,22.39
2022-10-23T20:19:29.447Z,22.32
2022-10-23T20:23:32.491Z,22.21
2022-10-23T20:31:56.048Z,22.38
2022-10-23T20:40:00.349Z,22.22
2022-10-23T20:44:00.460Z,21.92
2022-10-23T20:48:01.175Z,21.95
2022-10-23T20:52:02.791Z,21.99
2022-10-23T20:56:08.542Z,22.11
2022-10-23T21:00:11.962Z,22.40
2022-10-23T21:04:15.016Z,22.50
2022-10-23T21:08:15.425Z,22.63
2022-10-23T21:12:18.405Z,22.41
2022-10-23T21:16:24.844Z,22.27
2022-10-23T21:20:27.978Z,22.25
2022-10-23T21:24:28.186Z,22.12
2022-10-23T21:28:31.023Z,22.18
2022-10-23T21:32:31.093Z,22.37
2022-10-23T21:36:34.297Z,22.11
2022-10-23T21:40:40.244Z,22.37
2022-10-23T21:44:43.590Z,22.33
2022-10-23T21:48:44.553Z,22.17
2022-10-23T21:52:45.070Z,22.11
2022-10-23T21:56:48.777Z,21.64
2022-10-23T22:00:51.503Z,21.82
2022-10-23T22:04:51.650Z,21.99
2022-10-23T22:08:52.263Z,22.14
2022-10-23T22:12:52.430Z,21.92
2022-10-23T22:16:56.099Z,22.07
2022-10-23T22:21:02.480Z,22.05
2022-10-23T22:25:02.817Z,22.06
2022-10-23T22:29:06.736Z,21.88
2022-10-23T22:33:09.383Z,21.95
2022-10-23T22:37:09.674Z,21.63
2022-10-23T22:41:11.087Z,21.97
2022-10-23T22:45:12.914Z,21.79
2022-10-23T22:49:15.611Z,21.91
2022-10-23T22:53:16.805Z,21.92
2022-10-23T22:57:17.121Z,22.09
2022-10-23T23:01:21.480Z,22.15
2022-10-23T23:05:24.171Z,22.26
2022-10-23T23:09:24.289Z,22.28
2022-10-23T23:13:24.813Z,22.25
2022-10-23T23:17:24.951Z,22.27
2022-10-23T23:21:28.398Z,22.35
2022-10-23T23:25:28.506Z,22.40
2022-10-23T23:29:29.674Z,22.38
2022-10-23T23:33:30.839Z,22.38
2022-10-23T23:37:33.629Z,22.33
2022-10-23T23:41:33.750Z,22.31
2022-10-23T23:45:34.363Z,22.31
2022-10-23T23:49:34.514Z,22.60
2022-10-23T23:53:37.265Z,22.46
2022-10-23T23:57:37.392Z,22.43
